SCIE/CCP METAR and TAF weather

Enter ICAO airport designator
Station Type Date Time Source
SCIE METAR 2020/07/14 06:00 UTC NOAA

SCIE 140600Z AUTO 17005KT 9999 NCD 06/04 Q1022


Station Type Date Time Source
SCIE Decoded METAR 2020/07/14 06:00 UTC NOAA

Concepcion, Chile (SCIE) 36-46S 073-03W
Jul 14, 2020 - 02:00 AM EDT / 2020.07.14 0600 UTC
Wind: from the S (170 degrees) at 6 MPH (5 KT):0
Visibility: greater than 7 mile(s):0
Temperature: 42 F (6 C)
Dew Point: 39 F (4 C)
Relative Humidity: 86%
Pressure (altimeter): 30.18 in. Hg (1022 hPa)
ob: SCIE 140600Z AUTO 17005KT 9999 NCD 06/04 Q1022
cycle: 6

Station Type Date Time Source
SCIE TAF 2020/07/14 06:07 UTC NOAA

TAF SCIE 140400Z 1406/1506 15006KT CAVOK TX15/1418Z TN04/1411Z
BECMG 1416/1418 23010KT
BECMG 1500/1502 20005KT

Example: see airport list